sensor_id;sensor_type;location;lat;lon;timestamp;pressure;altitude;pressure_sealevel;temperature;humidity
13612;BME280;6877;51.436;6.774;2022-10-01T00:02:16;100249.47;;;11.64;70.76
13612;BME280;6877;51.436;6.774;2022-10-01T00:04:47;100254.34;;;11.47;72.53
13612;BME280;6877;51.436;6.774;2022-10-01T00:07:13;100248.97;;;11.22;74.61
13612;BME280;6877;51.436;6.774;2022-10-01T00:09:45;100240.19;;;10.95;77.50
13612;BME280;6877;51.436;6.774;2022-10-01T00:12:17;100240.06;;;10.66;79.09
13612;BME280;6877;51.436;6.774;2022-10-01T00:14:48;100231.97;;;10.43;81.27
13612;BME280;6877;51.436;6.774;2022-10-01T00:17:19;100235.03;;;10.26;82.69
13612;BME280;6877;51.436;6.774;2022-10-01T00:19:51;100221.50;;;10.09;84.79
13612;BME280;6877;51.436;6.774;2022-10-01T00:22:22;100221.81;;;9.96;86.28
13612;BME280;6877;51.436;6.774;2022-10-01T00:24:54;100221.88;;;9.93;87.75
13612;BME280;6877;51.436;6.774;2022-10-01T00:27:25;100206.44;;;9.83;89.13
13612;BME280;6877;51.436;6.774;2022-10-01T00:29:57;100204.81;;;9.77;90.11
13612;BME280;6877;51.436;6.774;2022-10-01T00:32:28;100197.09;;;9.72;90.65
13612;BME280;6877;51.436;6.774;2022-10-01T00:35:02;100196.31;;;9.69;90.75
13612;BME280;6877;51.436;6.774;2022-10-01T00:37:37;100183.34;;;9.66;91.59
13612;BME280;6877;51.436;6.774;2022-10-01T00:40:09;100183.41;;;9.63;92.76
13612;BME280;6877;51.436;6.774;2022-10-01T00:42:40;100164.28;;;9.61;93.19
13612;BME280;6877;51.436;6.774;2022-10-01T00:45:13;100153.84;;;9.61;93.59
13612;BME280;6877;51.436;6.774;2022-10-01T00:50:28;100129.53;;;9.59;94.39
13612;BME280;6877;51.436;6.774;2022-10-01T00:53:04;100130.44;;;9.56;95.01
13612;BME280;6877;51.436;6.774;2022-10-01T00:55:43;100120.88;;;9.55;95.42
13612;BME280;6877;51.436;6.774;2022-10-01T00:58:16;100127.94;;;9.51;95.76
13612;BME280;6877;51.436;6.774;2022-10-01T01:00:50;100112.34;;;9.48;96.29
13612;BME280;6877;51.436;6.774;2022-10-01T01:03:23;100112.41;;;9.45;96.93
13612;BME280;6877;51.436;6.774;2022-10-01T01:05:55;100105.47;;;9.44;97.37
13612;BME280;6877;51.436;6.774;2022-10-01T01:08:27;100105.47;;;9.44;97.73
13612;BME280;6877;51.436;6.774;2022-10-01T01:13:50;100107.22;;;9.44;98.37
13612;BME280;6877;51.436;6.774;2022-10-01T01:16:29;100094.94;;;9.47;98.08
13612;BME280;6877;51.436;6.774;2022-10-01T01:19:32;100086.34;;;9.42;98.68
13612;BME280;6877;51.436;6.774;2022-10-01T01:22:10;100076.78;;;9.43;99.18
13612;BME280;6877;51.436;6.774;2022-10-01T01:27:37;100066.38;;;9.41;99.19
13612;BME280;6877;51.436;6.774;2022-10-01T01:30:15;100055.09;;;9.39;99.48
13612;BME280;6877;51.436;6.774;2022-10-01T01:32:53;100061.19;;;9.40;99.54
13612;BME280;6877;51.436;6.774;2022-10-01T01:35:42;100056.00;;;9.38;99.63
13612;BME280;6877;51.436;6.774;2022-10-01T01:38:22;100060.31;;;9.39;99.71
13612;BME280;6877;51.436;6.774;2022-10-01T01:40:57;100049.00;;;9.40;99.82
13612;BME280;6877;51.436;6.774;2022-10-01T01:43:32;100047.25;;;9.39;100.00
13612;BME280;6877;51.436;6.774;2022-10-01T01:46:06;100038.66;;;9.36;100.00
13612;BME280;6877;51.436;6.774;2022-10-01T01:48:40;100033.31;;;9.40;100.00
13612;BME280;6877;51.436;6.774;2022-10-01T01:51:30;100041.16;;;9.40;100.00
13612;BME280;6877;51.436;6.774;2022-10-01T01:54:04;100028.13;;;9.39;100.00
13612;BME280;6877;51.436;6.774;2022-10-01T01:56:35;100030.75;;;9.39;100.00
13612;BME280;6877;51.436;6.774;2022-10-01T01:59:08;100020.28;;;9.40;100.00
13612;BME280;6877;51.436;6.774;2022-10-01T02:01:41;100026.38;;;9.39;100.00
13612;BME280;6877;51.436;6.774;2022-10-01T02:24:05;100037.72;;;9.38;100.00
13612;BME280;6877;51.436;6.774;2022-10-01T02:26:38;100027.28;;;9.38;100.00
13612;BME280;6877;51.436;6.774;2022-10-01T02:29:15;100026.38;;;9.39;100.00
13612;BME280;6877;51.436;6.774;2022-10-01T02:31:48;100028.97;;;9.39;100.00
13612;BME280;6877;51.436;6.774;2022-10-01T02:34:28;100013.31;;;9.39;100.00
13612;BME280;6877;51.436;6.774;2022-10-01T02:37:02;100005.47;;;9.41;100.00
13612;BME280;6877;51.436;6.774;2022-10-01T02:39:31;99994.97;;;9.42;100.00
13612;BME280;6877;51.436;6.774;2022-10-01T02:42:04;99969.75;;;9.41;100.00
13612;BME280;6877;51.436;6.774;2022-10-01T02:44:38;99981.13;;;9.39;100.00
13612;BME280;6877;51.436;6.774;2022-10-01T02:49:45;100000.31;;;9.38;100.00
13612;BME280;6877;51.436;6.774;2022-10-01T02:52:29;99985.50;;;9.38;100.00
13612;BME280;6877;51.436;6.774;2022-10-01T02:55:05;99967.22;;;9.38;100.00
13612;BME280;6877;51.436;6.774;2022-10-01T02:57:38;99952.47;;;9.37;100.00
13612;BME280;6877;51.436;6.774;2022-10-01T03:00:15;99950.72;;;9.36;100.00
13612;BME280;6877;51.436;6.774;2022-10-01T03:02:48;99943.78;;;9.35;100.00
13612;BME280;6877;51.436;6.774;2022-10-01T03:05:20;99945.50;;;9.36;100.00
13612;BME280;6877;51.436;6.774;2022-10-01T03:07:51;99949.88;;;9.36;100.00
13612;BME280;6877;51.436;6.774;2022-10-01T03:10:23;99948.09;;;9.36;100.00
13612;BME280;6877;51.436;6.774;2022-10-01T03:12:54;99943.78;;;9.37;100.00
13612;BME280;6877;51.436;6.774;2022-10-01T03:15:27;99941.94;;;9.39;100.00
13612;BME280;6877;51.436;6.774;2022-10-01T03:17:58;99941.09;;;9.38;100.00
13612;BME280;6877;51.436;6.774;2022-10-01T03:20:29;99935.94;;;9.37;100.00
13612;BME280;6877;51.436;6.774;2022-10-01T03:23:01;99941.09;;;9.38;100.00
13612;BME280;6877;51.436;6.774;2022-10-01T03:25:32;99953.22;;;9.41;100.00
13612;BME280;6877;51.436;6.774;2022-10-01T03:28:03;99942.78;;;9.41;100.00
13612;BME280;6877;51.436;6.774;2022-10-01T03:30:35;99941.06;;;9.40;100.00
13612;BME280;6877;51.436;6.774;2022-10-01T03:33:06;99932.41;;;9.38;100.00
13612;BME280;6877;51.436;6.774;2022-10-01T03:35:38;99922.81;;;9.38;100.00
13612;BME280;6877;51.436;6.774;2022-10-01T03:38:09;99907.16;;;9.38;100.00
13612;BME280;6877;51.436;6.774;2022-10-01T03:40:35;99884.59;;;9.36;100.00
13612;BME280;6877;51.436;6.774;2022-10-01T03:43:09;99882.81;;;9.36;100.00
13612;BME280;6877;51.436;6.774;2022-10-01T03:45:40;99878.50;;;9.35;100.00
13612;BME280;6877;51.436;6.774;2022-10-01T03:48:06;99878.50;;;9.37;100.00
13612;BME280;6877;51.436;6.774;2022-10-01T03:50:38;99874.13;;;9.37;100.00
13612;BME280;6877;51.436;6.774;2022-10-01T03:53:09;99857.53;;;9.38;100.00
13612;BME280;6877;51.436;6.774;2022-10-01T03:55:41;99859.31;;;9.38;100.00
13612;BME280;6877;51.436;6.774;2022-10-01T03:58:12;99863.66;;;9.37;100.00
13612;BME280;6877;51.436;6.774;2022-10-01T04:00:45;99860.16;;;9.38;100.00
13612;BME280;6877;51.436;6.774;2022-10-01T04:03:17;99872.31;;;9.39;100.00
13612;BME280;6877;51.436;6.774;2022-10-01T04:05:44;99868.81;;;9.40;100.00
13612;BME280;6877;51.436;6.774;2022-10-01T04:08:16;99877.31;;;9.47;100.00
13612;BME280;6877;51.436;6.774;2022-10-01T04:10:48;99884.41;;;9.43;100.00
13612;BME280;6877;51.436;6.774;2022-10-01T04:13:19;99886.09;;;9.44;100.00
13612;BME280;6877;51.436;6.774;2022-10-01T04:15:51;99879.16;;;9.43;100.00
13612;BME280;6877;51.436;6.774;2022-10-01T04:18:23;99874.75;;;9.45;100.00
13612;BME280;6877;51.436;6.774;2022-10-01T04:20:54;99879.97;;;9.45;100.00
13612;BME280;6877;51.436;6.774;2022-10-01T04:23:26;99877.34;;;9.45;100.00
13612;BME280;6877;51.436;6.774;2022-10-01T04:25:58;99849.44;;;9.47;100.00
13612;BME280;6877;51.436;6.774;2022-10-01T04:28:30;99863.41;;;9.46;100.00
13612;BME280;6877;51.436;6.774;2022-10-01T04:31:02;99852.91;;;9.48;100.00
13612;BME280;6877;51.436;6.774;2022-10-01T04:33:56;99851.06;;;9.51;100.00
13612;BME280;6877;51.436;6.774;2022-10-01T04:36:27;99857.16;;;9.52;100.00
13612;BME280;6877;51.436;6.774;2022-10-01T04:38:59;99852.81;;;9.52;100.00
13612;BME280;6877;51.436;6.774;2022-10-01T04:41:30;99844.00;;;9.55;100.00
13612;BME280;6877;51.436;6.774;2022-10-01T04:44:02;99844.81;;;9.57;100.00
13612;BME280;6877;51.436;6.774;2022-10-01T04:46:28;99837.81;;;9.59;100.00
13612;BME280;6877;51.436;6.774;2022-10-01T04:49:00;99833.44;;;9.60;100.00
13612;BME280;6877;51.436;6.774;2022-10-01T04:51:31;99836.03;;;9.60;100.00
13612;BME280;6877;51.436;6.774;2022-10-01T04:54:02;99842.19;;;9.59;100.00
13612;BME280;6877;51.436;6.774;2022-10-01T04:56:34;99842.09;;;9.62;100.00
13612;BME280;6877;51.436;6.774;2022-10-01T04:59:05;99837.72;;;9.62;100.00
13612;BME280;6877;51.436;6.774;2022-10-01T05:01:37;99842.88;;;9.64;100.00
13612;BME280;6877;51.436;6.774;2022-10-01T05:04:08;99842.00;;;9.65;100.00
13612;BME280;6877;51.436;6.774;2022-10-01T05:06:40;99848.94;;;9.66;100.00
13612;BME280;6877;51.436;6.774;2022-10-01T05:09:11;99866.31;;;9.67;100.00
13612;BME280;6877;51.436;6.774;2022-10-01T05:11:43;99858.34;;;9.71;100.00
13612;BME280;6877;51.436;6.774;2022-10-01T05:14:14;99859.19;;;9.72;100.00
13612;BME280;6877;51.436;6.774;2022-10-01T05:16:46;99872.19;;;9.73;100.00
13612;BME280;6877;51.436;6.774;2022-10-01T05:19:17;99869.56;;;9.75;100.00
13612;BME280;6877;51.436;6.774;2022-10-01T05:21:49;99872.03;;;9.80;100.00
13612;BME280;6877;51.436;6.774;2022-10-01T05:24:21;99872.78;;;9.83;100.00
13612;BME280;6877;51.436;6.774;2022-10-01T05:26:53;99877.94;;;9.86;100.00
13612;BME280;6877;51.436;6.774;2022-10-01T05:29:24;99886.66;;;9.87;100.00
13612;BME280;6877;51.436;6.774;2022-10-01T05:31:57;99890.91;;;9.89;100.00
13612;BME280;6877;51.436;6.774;2022-10-01T05:34:23;99887.34;;;9.92;100.00
13612;BME280;6877;51.436;6.774;2022-10-01T05:36:54;99892.53;;;9.93;100.00
13612;BME280;6877;51.436;6.774;2022-10-01T05:39:25;99893.34;;;9.95;100.00
13612;BME280;6877;51.436;6.774;2022-10-01T05:41:58;99899.31;;;9.99;100.00
13612;BME280;6877;51.436;6.774;2022-10-01T05:44:29;99902.66;;;10.04;100.00
13612;BME280;6877;51.436;6.774;2022-10-01T05:47:07;99894.72;;;10.07;100.00
13612;BME280;6877;51.436;6.774;2022-10-01T05:49:39;99906.81;;;10.11;100.00
13612;BME280;6877;51.436;6.774;2022-10-01T05:52:15;99908.44;;;10.15;100.00
13612;BME280;6877;51.436;6.774;2022-10-01T05:54:46;99910.09;;;10.18;100.00
13612;BME280;6877;51.436;6.774;2022-10-01T05:57:13;99905.66;;;10.21;100.00
13612;BME280;6877;51.436;6.774;2022-10-01T05:59:45;99915.06;;;10.27;100.00
13612;BME280;6877;51.436;6.774;2022-10-01T06:02:16;99914.09;;;10.31;100.00
13612;BME280;6877;51.436;6.774;2022-10-01T06:04:47;99914.78;;;10.36;100.00
13612;BME280;6877;51.436;6.774;2022-10-01T06:07:19;99916.44;;;10.40;100.00
13612;BME280;6877;51.436;6.774;2022-10-01T06:09:50;99917.22;;;10.42;100.00
13612;BME280;6877;51.436;6.774;2022-10-01T06:12:16;99914.50;;;10.46;100.00
13612;BME280;6877;51.436;6.774;2022-10-01T06:14:48;99910.88;;;10.50;100.00
13612;BME280;6877;51.436;6.774;2022-10-01T06:17:19;99911.59;;;10.55;100.00
13612;BME280;6877;51.436;6.774;2022-10-01T06:19:51;99911.47;;;10.59;100.00
13612;BME280;6877;51.436;6.774;2022-10-01T06:22:22;99915.72;;;10.62;100.00
13612;BME280;6877;51.436;6.774;2022-10-01T06:24:53;99903.47;;;10.64;100.00
13612;BME280;6877;51.436;6.774;2022-10-01T06:27:25;99917.34;;;10.66;100.00
13612;BME280;6877;51.436;6.774;2022-10-01T06:29:56;99918.06;;;10.71;100.00
13612;BME280;6877;51.436;6.774;2022-10-01T06:32:28;99910.09;;;10.74;100.00
13612;BME280;6877;51.436;6.774;2022-10-01T06:34:59;99909.25;;;10.74;100.00
13612;BME280;6877;51.436;6.774;2022-10-01T06:37:30;99916.16;;;10.76;100.00
13612;BME280;6877;51.436;6.774;2022-10-01T06:40:02;99922.19;;;10.78;100.00
13612;BME280;6877;51.436;6.774;2022-10-01T06:42:34;99918.66;;;10.79;100.00
13612;BME280;6877;51.436;6.774;2022-10-01T06:45:05;99920.34;;;10.82;100.00
13612;BME280;6877;51.436;6.774;2022-10-01T06:47:37;99919.41;;;10.83;100.00
13612;BME280;6877;51.436;6.774;2022-10-01T06:50:08;99919.31;;;10.86;100.00
13612;BME280;6877;51.436;6.774;2022-10-01T06:52:40;99916.69;;;10.86;100.00
13612;BME280;6877;51.436;6.774;2022-10-01T06:55:17;99922.78;;;10.86;100.00
13612;BME280;6877;51.436;6.774;2022-10-01T06:57:56;99929.69;;;10.89;100.00
13612;BME280;6877;51.436;6.774;2022-10-01T07:00:30;99927.88;;;10.91;100.00
13612;BME280;6877;51.436;6.774;2022-10-01T07:03:06;99936.59;;;10.92;100.00
13612;BME280;6877;51.436;6.774;2022-10-01T07:05:38;99940.91;;;10.93;100.00
13612;BME280;6877;51.436;6.774;2022-10-01T07:08:10;99940.81;;;10.96;100.00
13612;BME280;6877;51.436;6.774;2022-10-01T07:10:37;99948.56;;;10.99;100.00
13612;BME280;6877;51.436;6.774;2022-10-01T07:13:15;99950.25;;;11.00;100.00
13612;BME280;6877;51.436;6.774;2022-10-01T07:15:47;99946.75;;;11.01;100.00
13612;BME280;6877;51.436;6.774;2022-10-01T07:18:18;99954.53;;;11.04;100.00
13612;BME280;6877;51.436;6.774;2022-10-01T07:20:50;99954.34;;;11.08;100.00
13612;BME280;6877;51.436;6.774;2022-10-01T07:23:21;99957.81;;;11.09;100.00
13612;BME280;6877;51.436;6.774;2022-10-01T07:25:54;99957.72;;;11.12;100.00
13612;BME280;6877;51.436;6.774;2022-10-01T07:28:25;99960.19;;;11.17;100.00
13612;BME280;6877;51.436;6.774;2022-10-01T07:31:01;99966.22;;;11.19;100.00
13612;BME280;6877;51.436;6.774;2022-10-01T07:33:33;99963.47;;;11.23;100.00
13612;BME280;6877;51.436;6.774;2022-10-01T07:36:06;99976.34;;;11.29;100.00
13612;BME280;6877;51.436;6.774;2022-10-01T07:38:38;99971.75;;;11.36;100.00
13612;BME280;6877;51.436;6.774;2022-10-01T07:41:09;99975.84;;;11.45;100.00
13612;BME280;6877;51.436;6.774;2022-10-01T07:43:41;99971.06;;;11.56;100.00
13612;BME280;6877;51.436;6.774;2022-10-01T07:46:13;99984.56;;;11.70;100.00
13612;BME280;6877;51.436;6.774;2022-10-01T07:48:47;99980.50;;;11.87;100.00
13612;BME280;6877;51.436;6.774;2022-10-01T07:51:19;99992.53;;;11.92;100.00
13612;BME280;6877;51.436;6.774;2022-10-01T07:53:51;99995.09;;;11.94;100.00
13612;BME280;6877;51.436;6.774;2022-10-01T07:56:22;99983.84;;;11.90;100.00
13612;BME280;6877;51.436;6.774;2022-10-01T07:58:57;99976.69;;;11.95;100.00
13612;BME280;6877;51.436;6.774;2022-10-01T08:01:29;99988.59;;;12.04;100.00
13612;BME280;6877;51.436;6.774;2022-10-01T08:04:02;99986.63;;;12.56;100.00
13612;BME280;6877;51.436;6.774;2022-10-01T08:06:54;99986.66;;;13.20;100.00
13612;BME280;6877;51.436;6.774;2022-10-01T08:09:27;99991.59;;;13.50;100.00
13612;BME280;6877;51.436;6.774;2022-10-01T08:11:58;99994.16;;;13.31;98.92
13612;BME280;6877;51.436;6.774;2022-10-01T08:14:30;99988.63;;;13.37;100.00
13612;BME280;6877;51.436;6.774;2022-10-01T08:17:01;100002.34;;;13.64;100.00
13612;BME280;6877;51.436;6.774;2022-10-01T08:19:32;100004.22;;;13.62;99.04
13612;BME280;6877;51.436;6.774;2022-10-01T08:21:59;100011.66;;;13.53;98.89
13612;BME280;6877;51.436;6.774;2022-10-01T08:24:30;100011.09;;;13.44;98.70
13612;BME280;6877;51.436;6.774;2022-10-01T08:27:04;100009.84;;;13.33;98.31
13612;BME280;6877;51.436;6.774;2022-10-01T08:29:35;100014.19;;;13.34;98.34
13612;BME280;6877;51.436;6.774;2022-10-01T08:32:02;100021.53;;;14.07;97.78
13612;BME280;6877;51.436;6.774;2022-10-01T08:34:33;100021.00;;;14.20;94.18
13612;BME280;6877;51.436;6.774;2022-10-01T08:37:05;100023.09;;;14.11;94.42
13612;BME280;6877;51.436;6.774;2022-10-01T08:39:37;100036.75;;;14.01;94.72
13612;BME280;6877;51.436;6.774;2022-10-01T08:44:49;100037.94;;;13.73;95.60
13612;BME280;6877;51.436;6.774;2022-10-01T08:47:30;100032.94;;;13.67;95.70
13612;BME280;6877;51.436;6.774;2022-10-01T08:50:29;100044.28;;;13.67;96.09
13612;BME280;6877;51.436;6.774;2022-10-01T08:53:04;100048.84;;;13.64;95.77
13612;BME280;6877;51.436;6.774;2022-10-01T08:55:33;100045.81;;;13.53;95.92
13612;BME280;6877;51.436;6.774;2022-10-01T08:58:10;100053.88;;;13.48;96.36
13612;BME280;6877;51.436;6.774;2022-10-01T09:00:44;100052.06;;;13.50;95.97
13612;BME280;6877;51.436;6.774;2022-10-01T09:03:17;100046.53;;;13.56;96.89
13612;BME280;6877;51.436;6.774;2022-10-01T09:05:59;100044.69;;;13.58;96.95
13612;BME280;6877;51.436;6.774;2022-10-01T09:20:11;100060.78;;;12.85;100.00
13612;BME280;6877;51.436;6.774;2022-10-01T09:25:26;100076.88;;;12.99;100.00
13612;BME280;6877;51.436;6.774;2022-10-01T09:28:12;100071.75;;;13.18;100.00
13612;BME280;6877;51.436;6.774;2022-10-01T09:31:13;100077.50;;;13.28;100.00
13612;BME280;6877;51.436;6.774;2022-10-01T09:39:36;100095.31;;;13.19;100.00
13612;BME280;6877;51.436;6.774;2022-10-01T09:42:09;100095.66;;;13.10;100.00
13612;BME280;6877;51.436;6.774;2022-10-01T09:44:40;100101.41;;;12.98;100.00
13612;BME280;6877;51.436;6.774;2022-10-01T09:47:17;100101.38;;;12.76;100.00
13612;BME280;6877;51.436;6.774;2022-10-01T09:49:50;100090.34;;;12.66;100.00
13612;BME280;6877;51.436;6.774;2022-10-01T09:52:35;100091.91;;;12.72;100.00
13612;BME280;6877;51.436;6.774;2022-10-01T09:58:08;100100.31;;;13.04;100.00
13612;BME280;6877;51.436;6.774;2022-10-01T10:00:42;100086.88;;;13.11;100.00
13612;BME280;6877;51.436;6.774;2022-10-01T10:03:25;100086.63;;;14.02;100.00
13612;BME280;6877;51.436;6.774;2022-10-01T10:05:59;100097.00;;;14.86;100.00
13612;BME280;6877;51.436;6.774;2022-10-01T10:08:38;100092.75;;;16.08;100.00
13612;BME280;6877;51.436;6.774;2022-10-01T10:11:10;100088.25;;;17.86;95.50
13612;BME280;6877;51.436;6.774;2022-10-01T10:13:53;100088.09;;;19.97;84.72
13612;BME280;6877;51.436;6.774;2022-10-01T10:16:34;100092.97;;;21.54;80.13
13612;BME280;6877;51.436;6.774;2022-10-01T10:19:15;100105.66;;;21.85;74.66
13612;BME280;6877;51.436;6.774;2022-10-01T10:21:53;100101.09;;;21.98;75.18
13612;BME280;6877;51.436;6.774;2022-10-01T10:24:32;100120.56;;;22.34;74.96
13612;BME280;6877;51.436;6.774;2022-10-01T10:27:20;100114.84;;;21.33;72.12
13612;BME280;6877;51.436;6.774;2022-10-01T10:30:22;100136.16;;;19.26;70.81
13612;BME280;6877;51.436;6.774;2022-10-01T10:33:03;100130.63;;;19.29;78.56
13612;BME280;6877;51.436;6.774;2022-10-01T10:35:35;100128.59;;;20.39;74.07
13612;BME280;6877;51.436;6.774;2022-10-01T10:38:16;100129.22;;;20.30;71.89
13612;BME280;6877;51.436;6.774;2022-10-01T10:40:48;100132.34;;;21.12;72.03
13612;BME280;6877;51.436;6.774;2022-10-01T10:43:21;100138.09;;;21.55;65.32
13612;BME280;6877;51.436;6.774;2022-10-01T10:45:56;100139.25;;;20.52;66.44
13612;BME280;6877;51.436;6.774;2022-10-01T10:48:37;100147.41;;;19.71;69.31
13612;BME280;6877;51.436;6.774;2022-10-01T10:51:14;100152.44;;;19.61;71.71
13612;BME280;6877;51.436;6.774;2022-10-01T10:53:46;100158.97;;;19.28;73.35
13612;BME280;6877;51.436;6.774;2022-10-01T10:56:21;100149.03;;;20.51;70.86
13612;BME280;6877;51.436;6.774;2022-10-01T10:58:53;100145.84;;;21.82;66.34
13612;BME280;6877;51.436;6.774;2022-10-01T11:01:28;100141.41;;;22.40;61.84
13612;BME280;6877;51.436;6.774;2022-10-01T11:04:00;100146.31;;;22.80;62.45
13612;BME280;6877;51.436;6.774;2022-10-01T11:06:31;100151.66;;;23.57;61.72
13612;BME280;6877;51.436;6.774;2022-10-01T11:09:06;100151.09;;;23.43;58.67
13612;BME280;6877;51.436;6.774;2022-10-01T11:11:43;100148.72;;;22.72;58.30
13612;BME280;6877;51.436;6.774;2022-10-01T11:36:06;100169.84;;;16.82;74.90
13612;BME280;6877;51.436;6.774;2022-10-01T11:41:24;100178.34;;;15.67;84.12
13612;BME280;6877;51.436;6.774;2022-10-01T11:44:16;100172.91;;;14.57;87.81
13612;BME280;6877;51.436;6.774;2022-10-01T11:52:31;100190.94;;;13.39;96.79
13612;BME280;6877;51.436;6.774;2022-10-01T12:04:56;100196.91;;;14.29;94.62
13612;BME280;6877;51.436;6.774;2022-10-01T12:07:36;100197.16;;;14.43;93.93
13612;BME280;6877;51.436;6.774;2022-10-01T12:13:24;100202.53;;;14.81;94.33
13612;BME280;6877;51.436;6.774;2022-10-01T12:16:00;100204.03;;;15.26;93.31
13612;BME280;6877;51.436;6.774;2022-10-01T12:21:34;100198.94;;;15.40;91.22
13612;BME280;6877;51.436;6.774;2022-10-01T12:24:26;100203.94;;;15.46;91.39
13612;BME280;6877;51.436;6.774;2022-10-01T12:35:52;100224.13;;;16.37;83.93
13612;BME280;6877;51.436;6.774;2022-10-01T12:44:49;100232.50;;;16.45;78.24
13612;BME280;6877;51.436;6.774;2022-10-01T12:50:34;100245.56;;;16.49;78.99
13612;BME280;6877;51.436;6.774;2022-10-01T12:53:24;100248.97;;;16.51;78.29
13612;BME280;6877;51.436;6.774;2022-10-01T12:56:36;100244.63;;;16.15;76.26
13612;BME280;6877;51.436;6.774;2022-10-01T13:07:25;100273.16;;;15.33;78.86
13612;BME280;6877;51.436;6.774;2022-10-01T13:12:51;100293.09;;;15.76;78.84
13612;BME280;6877;51.436;6.774;2022-10-01T13:15:42;100296.22;;;16.03;77.81
13612;BME280;6877;51.436;6.774;2022-10-01T13:21:38;100283.78;;;16.24;74.60
13612;BME280;6877;51.436;6.774;2022-10-01T13:24:31;100291.34;;;16.13;74.70
13612;BME280;6877;51.436;6.774;2022-10-01T13:30:01;100309.09;;;15.73;75.96
13612;BME280;6877;51.436;6.774;2022-10-01T13:32:54;100318.88;;;15.71;77.10
13612;BME280;6877;51.436;6.774;2022-10-01T13:41:25;100328.34;;;15.75;74.78
13612;BME280;6877;51.436;6.774;2022-10-01T13:44:03;100330.78;;;15.98;74.81
13612;BME280;6877;51.436;6.774;2022-10-01T13:46:57;100341.00;;;16.24;71.89
13612;BME280;6877;51.436;6.774;2022-10-01T13:49:35;100351.34;;;16.45;72.07
13612;BME280;6877;51.436;6.774;2022-10-01T13:52:18;100350.44;;;16.47;71.80
13612;BME280;6877;51.436;6.774;2022-10-01T13:54:52;100354.31;;;16.57;71.77
13612;BME280;6877;51.436;6.774;2022-10-01T13:57:37;100347.91;;;16.62;71.32
13612;BME280;6877;51.436;6.774;2022-10-01T14:02:44;100351.53;;;16.42;71.63
13612;BME280;6877;51.436;6.774;2022-10-01T14:05:34;100360.00;;;16.13;72.37
13612;BME280;6877;51.436;6.774;2022-10-01T14:08:26;100357.06;;;16.19;72.29
13612;BME280;6877;51.436;6.774;2022-10-01T14:11:03;100366.09;;;16.32;70.59
13612;BME280;6877;51.436;6.774;2022-10-01T14:17:11;100372.19;;;16.52;69.91
13612;BME280;6877;51.436;6.774;2022-10-01T14:19:45;100367.78;;;16.52;69.03
13612;BME280;6877;51.436;6.774;2022-10-01T14:27:46;100386.28;;;16.69;66.25
13612;BME280;6877;51.436;6.774;2022-10-01T14:30:32;100386.84;;;16.76;66.66
13612;BME280;6877;51.436;6.774;2022-10-01T14:36:18;100392.84;;;17.14;66.48
13612;BME280;6877;51.436;6.774;2022-10-01T14:39:10;100401.75;;;17.47;64.73
13612;BME280;6877;51.436;6.774;2022-10-01T14:41:45;100399.66;;;17.53;64.44
13612;BME280;6877;51.436;6.774;2022-10-01T14:46:58;100404.25;;;17.50;63.99
13612;BME280;6877;51.436;6.774;2022-10-01T14:49:31;100406.09;;;17.48;63.83
13612;BME280;6877;51.436;6.774;2022-10-01T14:52:16;100405.16;;;17.49;63.92
13612;BME280;6877;51.436;6.774;2022-10-01T15:00:02;100411.78;;;17.57;64.73
13612;BME280;6877;51.436;6.774;2022-10-01T15:05:26;100424.63;;;17.48;62.98
13612;BME280;6877;51.436;6.774;2022-10-01T15:08:11;100423.09;;;17.44;63.91
13612;BME280;6877;51.436;6.774;2022-10-01T15:10:47;100417.97;;;17.41;63.77
13612;BME280;6877;51.436;6.774;2022-10-01T15:13:28;100434.59;;;17.43;64.17
13612;BME280;6877;51.436;6.774;2022-10-01T15:16:01;100444.84;;;17.49;63.70
13612;BME280;6877;51.436;6.774;2022-10-01T15:18:33;100451.88;;;17.50;63.92
13612;BME280;6877;51.436;6.774;2022-10-01T15:21:13;100451.25;;;17.45;64.28
13612;BME280;6877;51.436;6.774;2022-10-01T15:23:47;100457.03;;;17.18;63.14
13612;BME280;6877;51.436;6.774;2022-10-01T15:26:21;100465.63;;;17.04;62.90
13612;BME280;6877;51.436;6.774;2022-10-01T15:29:06;100464.00;;;17.02;61.77
13612;BME280;6877;51.436;6.774;2022-10-01T15:31:42;100459.16;;;16.92;59.19
13612;BME280;6877;51.436;6.774;2022-10-01T15:34:18;100466.69;;;16.83;60.75
13612;BME280;6877;51.436;6.774;2022-10-01T15:36:47;100466.25;;;16.73;60.15
13612;BME280;6877;51.436;6.774;2022-10-01T15:45:20;100480.16;;;16.40;59.59
13612;BME280;6877;51.436;6.774;2022-10-01T15:47:49;100484.00;;;16.33;60.18
13612;BME280;6877;51.436;6.774;2022-10-01T15:50:29;100486.84;;;16.29;59.65
13612;BME280;6877;51.436;6.774;2022-10-01T15:53:16;100487.22;;;16.21;59.84
13612;BME280;6877;51.436;6.774;2022-10-01T15:55:51;100499.25;;;16.08;60.89
13612;BME280;6877;51.436;6.774;2022-10-01T15:58:29;100494.41;;;15.98;61.33
13612;BME280;6877;51.436;6.774;2022-10-01T16:01:07;100506.13;;;15.91;61.41
13612;BME280;6877;51.436;6.774;2022-10-01T16:03:40;100516.06;;;15.86;60.89
13612;BME280;6877;51.436;6.774;2022-10-01T16:09:09;100522.78;;;15.93;61.14
13612;BME280;6877;51.436;6.774;2022-10-01T16:22:46;100547.69;;;15.66;62.58
13612;BME280;6877;51.436;6.774;2022-10-01T16:28:03;100562.53;;;15.48;63.57
13612;BME280;6877;51.436;6.774;2022-10-01T16:30:31;100564.34;;;15.46;62.56
13612;BME280;6877;51.436;6.774;2022-10-01T16:33:04;100575.03;;;15.43;62.57
13612;BME280;6877;51.436;6.774;2022-10-01T16:35:32;100572.03;;;15.30;63.70
13612;BME280;6877;51.436;6.774;2022-10-01T16:38:05;100570.63;;;15.21;64.06
13612;BME280;6877;51.436;6.774;2022-10-01T16:40:42;100582.41;;;15.13;64.83
13612;BME280;6877;51.436;6.774;2022-10-01T16:43:20;100589.09;;;14.99;65.57
13612;BME280;6877;51.436;6.774;2022-10-01T16:45:55;100578.00;;;14.91;65.74
13612;BME280;6877;51.436;6.774;2022-10-01T16:48:27;100587.97;;;14.83;66.81
13612;BME280;6877;51.436;6.774;2022-10-01T16:50:59;100594.28;;;14.79;67.02
13612;BME280;6877;51.436;6.774;2022-10-01T16:53:30;100597.31;;;14.68;67.73
13612;BME280;6877;51.436;6.774;2022-10-01T16:56:02;100600.41;;;14.56;68.44